createdAt,value
2018-05-08T00:02:16.034Z,19.30
2018-05-08T00:04:43.043Z,19.10
2018-05-08T00:07:09.353Z,18.70
2018-05-08T00:09:35.679Z,18.90
2018-05-08T00:12:01.939Z,19.10
2018-05-08T00:14:28.216Z,18.90
2018-05-08T00:16:54.461Z,19.00
2018-05-08T00:19:20.731Z,19.00
2018-05-08T00:21:47.008Z,18.90
2018-05-08T00:24:13.262Z,19.00
2018-05-08T00:26:39.619Z,18.60
2018-05-08T00:29:05.822Z,18.60
2018-05-08T00:31:32.101Z,18.80
2018-05-08T00:33:59.097Z,18.80
2018-05-08T00:36:25.358Z,18.70
2018-05-08T00:38:51.609Z,18.60
2018-05-08T00:41:17.866Z,18.70
2018-05-08T00:43:44.161Z,18.80
2018-05-08T00:46:11.193Z,18.80
2018-05-08T00:48:37.446Z,18.30
2018-05-08T00:51:04.466Z,18.80
2018-05-08T00:53:30.727Z,18.80
2018-05-08T00:55:57.007Z,18.70
2018-05-08T00:58:23.301Z,18.30
2018-05-08T01:00:49.600Z,18.70
2018-05-08T01:03:16.597Z,18.70
2018-05-08T01:05:42.864Z,18.60
2018-05-08T01:08:09.894Z,18.40
2018-05-08T01:10:36.157Z,18.40
2018-05-08T01:13:03.193Z,18.40
2018-05-08T01:15:30.251Z,18.10
2018-05-08T01:17:57.480Z,18.00
2018-05-08T01:20:23.778Z,18.20
2018-05-08T01:22:50.078Z,18.10
2018-05-08T01:25:16.319Z,18.20
2018-05-08T01:27:42.577Z,18.00
2018-05-08T01:30:08.882Z,17.90
2018-05-08T01:32:35.157Z,18.00
2018-05-08T01:35:01.441Z,18.10
2018-05-08T01:37:27.714Z,18.10
2018-05-08T01:39:53.965Z,18.10
2018-05-08T01:42:20.239Z,18.20
2018-05-08T01:44:46.541Z,18.10
2018-05-08T01:47:13.551Z,18.20
2018-05-08T01:49:39.843Z,18.20
2018-05-08T01:52:06.125Z,18.00
2018-05-08T01:54:32.414Z,17.80
2018-05-08T01:56:58.706Z,17.90
2018-05-08T01:59:25.720Z,17.80
2018-05-08T02:01:52.014Z,17.70
2018-05-08T02:04:18.302Z,17.90
2018-05-08T02:06:45.346Z,17.70
2018-05-08T02:09:11.641Z,18.00
2018-05-08T02:11:37.895Z,18.00
2018-05-08T02:14:04.174Z,18.00
2018-05-08T02:16:30.423Z,18.00
2018-05-08T02:18:56.673Z,17.90
2018-05-08T02:21:23.219Z,17.80
2018-05-08T02:23:49.470Z,17.50
2018-05-08T02:26:16.482Z,18.00
2018-05-08T02:28:42.791Z,17.90
2018-05-08T02:31:09.041Z,17.80
2018-05-08T02:33:35.314Z,17.40
2018-05-08T02:36:01.640Z,17.80
2018-05-08T02:38:27.907Z,17.40
2018-05-08T02:40:54.176Z,17.80
2018-05-08T02:43:21.211Z,17.30
2018-05-08T02:45:47.484Z,17.30
2018-05-08T02:48:13.741Z,17.50
2018-05-08T02:50:40.342Z,17.30
2018-05-08T02:53:07.386Z,17.30
2018-05-08T02:55:34.428Z,17.30
2018-05-08T02:58:01.461Z,17.50
2018-05-08T03:00:27.723Z,17.40
2018-05-08T03:02:54.741Z,17.10
2018-05-08T03:05:21.028Z,17.20
2018-05-08T03:07:47.337Z,17.40
2018-05-08T03:10:13.611Z,17.40
2018-05-08T03:12:39.918Z,17.20
2018-05-08T03:15:07.111Z,17.20
2018-05-08T03:17:33.370Z,17.20
2018-05-08T03:19:59.660Z,17.20
2018-05-08T03:22:25.924Z,17.10
2018-05-08T03:24:52.929Z,17.10
2018-05-08T03:27:19.214Z,16.70
2018-05-08T03:29:45.477Z,17.20
2018-05-08T03:32:11.739Z,16.80
2018-05-08T03:34:38.044Z,17.00
2018-05-08T03:37:04.296Z,16.60
2018-05-08T03:39:30.545Z,16.70
2018-05-08T03:41:57.583Z,17.10
2018-05-08T03:44:23.865Z,16.90
2018-05-08T03:46:50.140Z,16.90
2018-05-08T03:49:16.406Z,16.70
2018-05-08T03:51:42.673Z,17.00
2018-05-08T03:54:08.962Z,16.90
2018-05-08T03:56:35.234Z,16.40
2018-05-08T03:59:01.509Z,16.70
2018-05-08T04:01:40.169Z,16.50
2018-05-08T04:04:18.750Z,16.50
2018-05-08T04:07:06.840Z,16.40
2018-05-08T04:09:33.134Z,16.50
2018-05-08T04:11:59.409Z,16.50
2018-05-08T04:14:25.709Z,16.40
2018-05-08T04:16:52.105Z,16.00
2018-05-08T04:19:19.126Z,16.60
2018-05-08T04:21:45.409Z,16.40
2018-05-08T04:24:11.682Z,16.30
2018-05-08T04:26:37.932Z,16.50
2018-05-08T04:29:04.938Z,16.40
2018-05-08T04:31:31.198Z,16.40
2018-05-08T04:33:57.489Z,16.40
2018-05-08T04:36:24.478Z,16.40
2018-05-08T04:38:50.772Z,16.50
2018-05-08T04:41:17.023Z,16.40
2018-05-08T04:43:43.307Z,16.60
2018-05-08T04:46:09.626Z,16.40
2018-05-08T04:48:35.898Z,16.60
2018-05-08T04:51:02.217Z,16.50
2018-05-08T04:53:29.242Z,16.50
2018-05-08T04:55:55.584Z,16.90
2018-05-08T04:58:21.793Z,16.60
2018-05-08T05:00:48.039Z,16.60
2018-05-08T05:03:14.285Z,17.10
2018-05-08T05:05:40.572Z,16.90
2018-05-08T05:08:06.838Z,17.00
2018-05-08T05:10:33.086Z,17.00
2018-05-08T05:12:59.388Z,16.70
2018-05-08T05:15:25.646Z,16.90
2018-05-08T05:17:51.958Z,16.60
2018-05-08T05:20:18.237Z,17.10
2018-05-08T05:22:45.261Z,17.00
2018-05-08T05:25:11.539Z,16.90
2018-05-08T05:27:37.881Z,16.90
2018-05-08T05:30:04.142Z,17.00
2018-05-08T05:32:30.467Z,17.00
2018-05-08T05:34:56.790Z,16.80
2018-05-08T05:37:23.073Z,17.00
2018-05-08T05:39:50.086Z,17.50
2018-05-08T05:42:16.385Z,17.10
2018-05-08T05:44:42.646Z,17.20
2018-05-08T05:47:08.929Z,17.30
2018-05-08T05:49:35.282Z,17.40
2018-05-08T05:52:01.556Z,17.20
2018-05-08T05:54:27.806Z,17.80
2018-05-08T05:56:54.853Z,17.90
2018-05-08T05:59:21.902Z,17.70
2018-05-08T06:01:48.932Z,17.60
2018-05-08T06:04:15.296Z,17.50
2018-05-08T06:06:41.571Z,17.70
2018-05-08T06:09:07.902Z,17.80
2018-05-08T06:11:34.198Z,17.70
2018-05-08T06:14:00.515Z,17.70
2018-05-08T06:16:26.938Z,17.40
2018-05-08T06:18:54.195Z,17.30
2018-05-08T06:21:21.154Z,17.50
2018-05-08T06:23:47.474Z,17.90
2018-05-08T06:26:13.750Z,17.80
2018-05-08T06:28:40.026Z,18.00
2018-05-08T06:31:06.343Z,18.00
2018-05-08T06:33:33.386Z,18.00
2018-05-08T06:36:00.378Z,18.50
2018-05-08T06:38:26.695Z,17.80
2018-05-08T06:40:52.978Z,18.40
2018-05-08T06:43:19.270Z,18.60
2018-05-08T06:45:45.594Z,18.80
2018-05-08T06:48:11.870Z,18.80
2018-05-08T06:50:38.983Z,19.50
2018-05-08T06:53:05.514Z,19.50
2018-05-08T06:55:31.809Z,19.50
2018-05-08T06:57:59.943Z,20.70
2018-05-08T07:00:26.344Z,20.90
2018-05-08T07:02:52.598Z,21.40
2018-05-08T07:05:18.862Z,22.40
2018-05-08T07:07:45.156Z,23.70
2018-05-08T07:10:11.414Z,23.50
2018-05-08T07:12:37.776Z,23.40
2018-05-08T07:15:04.124Z,23.20
2018-05-08T07:17:30.482Z,23.20
2018-05-08T07:19:56.915Z,23.70
2018-05-08T07:22:23.250Z,24.30
2018-05-08T07:24:49.522Z,24.60
2018-05-08T07:27:15.774Z,23.60
2018-05-08T07:29:42.094Z,24.30
2018-05-08T07:32:09.114Z,25.10
2018-05-08T07:34:35.398Z,24.90
2018-05-08T07:37:01.700Z,24.10
2018-05-08T07:39:27.970Z,23.60
2018-05-08T07:41:54.230Z,23.50
2018-05-08T07:44:20.598Z,24.10
2018-05-08T07:46:46.879Z,24.30
2018-05-08T07:49:13.183Z,25.00
2018-05-08T07:51:39.568Z,24.40
2018-05-08T07:54:06.622Z,24.30
2018-05-08T07:56:32.941Z,24.20
2018-05-08T07:58:59.197Z,24.20
2018-05-08T08:01:25.465Z,24.40
2018-05-08T08:03:51.785Z,25.00
2018-05-08T08:06:18.079Z,24.70
2018-05-08T08:08:45.798Z,24.60
2018-05-08T08:11:12.154Z,24.30
2018-05-08T08:13:38.424Z,24.40
2018-05-08T08:16:05.449Z,24.80
2018-05-08T08:18:32.582Z,25.20
2018-05-08T08:20:58.762Z,25.20
2018-05-08T08:23:25.066Z,26.30
2018-05-08T08:25:51.419Z,26.30
2018-05-08T08:28:17.754Z,26.00
2018-05-08T08:30:44.033Z,25.90
2018-05-08T08:33:10.357Z,25.40
2018-05-08T08:35:36.679Z,25.20
2018-05-08T08:38:02.934Z,25.70
2018-05-08T08:40:30.000Z,27.20
2018-05-08T08:42:56.293Z,27.00
2018-05-08T08:45:22.545Z,27.00
2018-05-08T08:47:49.661Z,26.00
2018-05-08T08:50:15.890Z,26.20
2018-05-08T08:52:42.153Z,26.30
2018-05-08T08:55:09.185Z,26.70
2018-05-08T08:57:35.457Z,26.80
2018-05-08T09:00:01.730Z,26.50
2018-05-08T09:02:28.012Z,26.40
2018-05-08T09:04:54.292Z,26.50
2018-05-08T09:07:20.598Z,26.70
2018-05-08T09:09:46.911Z,27.10
2018-05-08T09:12:13.190Z,28.40
2018-05-08T09:14:39.525Z,28.60
2018-05-08T09:17:05.802Z,28.30
2018-05-08T09:19:32.172Z,28.90
2018-05-08T09:21:58.430Z,30.20
2018-05-08T09:24:25.509Z,30.00
2018-05-08T09:26:51.778Z,29.90
2018-05-08T09:29:18.050Z,29.60
2018-05-08T09:31:45.090Z,28.00
2018-05-08T09:34:11.392Z,27.90
2018-05-08T09:36:38.472Z,28.50
2018-05-08T09:39:04.810Z,28.20
2018-05-08T09:41:31.116Z,28.30
2018-05-08T09:43:58.185Z,29.30
2018-05-08T09:46:24.469Z,29.20
2018-05-08T09:48:50.766Z,28.80
2018-05-08T09:51:17.782Z,29.30
2018-05-08T09:53:44.857Z,28.20
2018-05-08T09:56:11.135Z,28.20
2018-05-08T09:58:37.462Z,28.10
2018-05-08T10:01:03.763Z,27.90
2018-05-08T10:03:30.048Z,28.80
2018-05-08T10:05:57.097Z,30.10
2018-05-08T10:08:24.135Z,29.00
2018-05-08T10:10:51.193Z,29.30
2018-05-08T10:13:18.298Z,29.40
2018-05-08T10:15:44.583Z,29.40
2018-05-08T10:18:10.875Z,29.00
2018-05-08T10:20:38.212Z,28.90
2018-05-08T10:23:04.499Z,28.40
2018-05-08T10:25:31.506Z,27.90
2018-05-08T10:27:57.789Z,28.00
2018-05-08T10:30:24.045Z,29.00
2018-05-08T10:32:50.330Z,29.20
2018-05-08T10:35:17.379Z,28.40
2018-05-08T10:37:43.683Z,28.80
2018-05-08T10:40:10.059Z,29.00
2018-05-08T10:42:36.445Z,30.00
2018-05-08T10:45:03.378Z,30.20
2018-05-08T10:47:29.647Z,30.00
2018-05-08T10:49:56.690Z,30.60
2018-05-08T10:52:23.725Z,31.10
2018-05-08T10:54:50.007Z,31.30
2018-05-08T10:57:16.337Z,30.30
2018-05-08T10:59:42.613Z,29.00
2018-05-08T11:02:08.861Z,28.50
2018-05-08T11:04:35.885Z,29.80
2018-05-08T11:07:02.170Z,29.80
2018-05-08T11:09:28.422Z,29.90
2018-05-08T11:11:55.030Z,30.40
2018-05-08T11:14:22.039Z,30.20
2018-05-08T11:16:49.037Z,30.10
2018-05-08T11:19:15.325Z,30.20
2018-05-08T11:21:42.344Z,29.80
2018-05-08T11:24:08.610Z,29.40
2018-05-08T11:26:35.726Z,30.30
2018-05-08T11:29:01.984Z,30.50
2018-05-08T11:31:28.998Z,30.60
2018-05-08T11:33:55.574Z,30.60
2018-05-08T11:36:22.586Z,30.30
2018-05-08T11:38:48.842Z,30.60
2018-05-08T11:41:15.868Z,29.20
2018-05-08T11:43:42.114Z,29.30
2018-05-08T11:46:09.153Z,29.60
2018-05-08T11:48:35.441Z,29.60
2018-05-08T11:51:01.709Z,29.50
2018-05-08T11:53:28.727Z,30.50
2018-05-08T11:55:55.001Z,30.40
2018-05-08T11:58:22.035Z,30.10
2018-05-08T12:00:48.345Z,29.80
2018-05-08T12:03:14.625Z,29.80
2018-05-08T12:05:41.730Z,29.70
2018-05-08T12:08:07.998Z,29.50
2018-05-08T12:10:35.020Z,29.40
2018-05-08T12:13:01.278Z,29.60
2018-05-08T12:15:28.277Z,29.90
2018-05-08T12:17:54.558Z,30.00
2018-05-08T12:20:21.577Z,29.70
2018-05-08T12:22:47.846Z,29.60
2018-05-08T12:25:14.153Z,29.50
2018-05-08T12:27:41.161Z,29.20
2018-05-08T12:30:07.450Z,29.20
2018-05-08T12:32:33.758Z,29.60
2018-05-08T12:35:00.763Z,28.40
2018-05-08T12:37:27.044Z,28.90
2018-05-08T12:39:53.424Z,29.20
2018-05-08T12:42:19.746Z,29.60
2018-05-08T12:44:46.004Z,29.70
2018-05-08T12:47:12.349Z,29.10
2018-05-08T12:49:38.610Z,30.30
2018-05-08T12:52:04.902Z,30.60
2018-05-08T12:54:31.222Z,31.00
2018-05-08T12:56:57.554Z,30.70
2018-05-08T12:59:23.837Z,30.70
2018-05-08T13:01:51.153Z,29.90
2018-05-08T13:04:17.478Z,29.40
2018-05-08T13:06:44.521Z,30.40
2018-05-08T13:09:10.841Z,30.30
2018-05-08T13:11:37.105Z,30.20
2018-05-08T13:14:03.415Z,29.30
2018-05-08T13:16:29.697Z,29.60
2018-05-08T13:18:55.990Z,30.40
2018-05-08T13:21:22.263Z,30.60
2018-05-08T13:23:48.592Z,30.70
2018-05-08T13:26:14.866Z,30.10
2018-05-08T13:28:41.890Z,30.20
2018-05-08T13:31:08.243Z,30.20
2018-05-08T13:33:34.518Z,30.20
2018-05-08T13:36:00.793Z,30.00
2018-05-08T13:38:27.083Z,30.00
2018-05-08T13:40:53.346Z,30.10
2018-05-08T13:43:19.605Z,30.10
2018-05-08T13:45:46.674Z,30.60
2018-05-08T13:48:12.993Z,30.90
2018-05-08T13:50:40.019Z,30.30
2018-05-08T13:53:06.306Z,30.40
2018-05-08T13:55:32.618Z,31.60
2018-05-08T13:57:58.890Z,31.80
2018-05-08T14:00:25.182Z,32.40
2018-05-08T14:02:51.466Z,31.80
2018-05-08T14:05:17.739Z,31.40
2018-05-08T14:07:44.151Z,32.20
2018-05-08T14:10:11.063Z,32.60
2018-05-08T14:12:37.334Z,32.40
2018-05-08T14:15:04.393Z,31.10
2018-05-08T14:17:30.743Z,31.20
2018-05-08T14:19:57.034Z,30.90
2018-05-08T14:22:24.090Z,31.80
2018-05-08T14:24:51.118Z,31.40
2018-05-08T14:27:17.366Z,31.50
2018-05-08T14:29:44.423Z,31.20
2018-05-08T14:32:10.720Z,31.60
2018-05-08T14:34:37.003Z,30.30
2018-05-08T14:37:03.314Z,30.20
2018-05-08T14:39:30.297Z,30.90
2018-05-08T14:41:56.603Z,31.00
2018-05-08T14:44:22.908Z,29.70
2018-05-08T14:46:49.219Z,30.80
2018-05-08T14:49:15.522Z,30.90
2018-05-08T14:51:41.819Z,30.80
2018-05-08T14:54:08.098Z,30.70
2018-05-08T14:56:34.390Z,31.30
2018-05-08T14:59:00.718Z,31.50
2018-05-08T15:01:26.965Z,32.10
2018-05-08T15:03:53.234Z,31.30
2018-05-08T15:06:19.583Z,31.40
2018-05-08T15:08:46.606Z,31.40
2018-05-08T15:11:12.899Z,31.20
2018-05-08T15:13:39.231Z,32.10
2018-05-08T15:16:05.529Z,31.70
2018-05-08T15:18:32.524Z,30.50
2018-05-08T15:20:58.840Z,30.40
2018-05-08T15:23:25.157Z,30.30
2018-05-08T15:25:51.430Z,30.30
2018-05-08T15:28:17.710Z,29.70
2018-05-08T15:30:43.986Z,30.20
2018-05-08T15:33:10.255Z,29.80
2018-05-08T15:35:37.298Z,30.00
2018-05-08T15:38:04.570Z,30.10
2018-05-08T15:40:30.841Z,30.20
2018-05-08T15:42:57.454Z,30.20
2018-05-08T15:45:23.723Z,29.60
2018-05-08T15:47:50.022Z,29.70
2018-05-08T15:50:16.321Z,29.70
2018-05-08T15:52:42.572Z,30.20
2018-05-08T15:55:08.918Z,30.60
2018-05-08T15:57:35.898Z,30.10
2018-05-08T16:00:02.977Z,29.40
2018-05-08T16:02:29.267Z,29.40
2018-05-08T16:04:56.320Z,29.90
2018-05-08T16:07:22.574Z,29.60
2018-05-08T16:09:49.630Z,29.70
2018-05-08T16:12:15.901Z,29.60
2018-05-08T16:14:42.926Z,29.50
2018-05-08T16:17:09.209Z,29.10
2018-05-08T16:19:35.477Z,29.40
2018-05-08T16:22:01.793Z,29.00
2018-05-08T16:24:28.077Z,29.40
2018-05-08T16:26:54.406Z,29.20
2018-05-08T16:29:21.402Z,29.20
2018-05-08T16:31:47.677Z,29.40
2018-05-08T16:34:14.740Z,28.80
2018-05-08T16:36:41.024Z,28.90
2018-05-08T16:39:07.295Z,29.20
2018-05-08T16:41:33.607Z,29.00
2018-05-08T16:43:59.912Z,29.00
2018-05-08T16:46:26.231Z,28.60
2018-05-08T16:48:52.523Z,28.50
2018-05-08T16:51:18.808Z,28.40
2018-05-08T16:53:45.077Z,27.90
2018-05-08T16:56:11.368Z,27.90
2018-05-08T16:58:37.635Z,28.00
2018-05-08T17:01:03.903Z,27.80
2018-05-08T17:03:30.945Z,27.70
2018-05-08T17:05:57.968Z,27.40
2018-05-08T17:08:24.227Z,27.10
2018-05-08T17:10:51.251Z,27.20
2018-05-08T17:13:17.531Z,26.70
2018-05-08T17:15:43.793Z,27.10
2018-05-08T17:18:10.086Z,27.00
2018-05-08T17:20:36.354Z,27.00
2018-05-08T17:23:02.650Z,27.10
2018-05-08T17:25:29.004Z,27.30
2018-05-08T17:27:55.245Z,27.40
2018-05-08T17:30:21.525Z,27.00
2018-05-08T17:32:47.825Z,27.10
2018-05-08T17:35:14.117Z,27.20
2018-05-08T17:37:40.409Z,27.00
2018-05-08T17:40:07.518Z,27.00
2018-05-08T17:42:33.784Z,26.60
2018-05-08T17:45:00.770Z,26.70
2018-05-08T17:47:27.094Z,26.90
2018-05-08T17:49:53.384Z,26.60
2018-05-08T17:52:20.397Z,26.70
2018-05-08T17:54:46.706Z,26.60
2018-05-08T17:57:12.977Z,26.60
2018-05-08T17:59:39.240Z,26.60
2018-05-08T18:02:05.512Z,26.60
2018-05-08T18:04:31.774Z,26.80
2018-05-08T18:06:58.771Z,26.70
2018-05-08T18:09:25.059Z,26.50
2018-05-08T18:11:52.061Z,26.50
2018-05-08T18:14:18.338Z,26.40
2018-05-08T18:16:45.442Z,26.30
2018-05-08T18:19:11.703Z,26.30
2018-05-08T18:21:37.967Z,26.50
2018-05-08T18:24:04.311Z,25.90
2018-05-08T18:26:30.570Z,26.40
2018-05-08T18:28:56.844Z,25.80
2018-05-08T18:31:23.167Z,26.10
2018-05-08T18:33:49.444Z,26.00
2018-05-08T18:36:15.716Z,25.90
2018-05-08T18:38:41.997Z,25.90
2018-05-08T18:41:09.007Z,25.70
2018-05-08T18:43:35.286Z,26.20
2018-05-08T18:46:01.582Z,25.80
2018-05-08T18:48:27.881Z,25.80
2018-05-08T18:50:54.890Z,26.10
2018-05-08T18:53:21.190Z,25.60
2018-05-08T18:55:47.439Z,25.60
2018-05-08T18:58:13.685Z,25.60
2018-05-08T19:00:46.031Z,25.50
2018-05-08T19:03:12.279Z,25.60
2018-05-08T19:05:38.525Z,25.50
2018-05-08T19:08:04.827Z,25.20
2018-05-08T19:10:31.094Z,25.40
2018-05-08T19:12:57.363Z,25.50
2018-05-08T19:15:29.690Z,25.60
2018-05-08T19:17:55.942Z,25.40
2018-05-08T19:20:22.954Z,25.00
2018-05-08T19:22:49.273Z,25.10
2018-05-08T19:25:16.414Z,24.90
2018-05-08T19:27:42.701Z,25.10
2018-05-08T19:30:16.407Z,24.70
2018-05-08T19:32:43.401Z,24.80
2018-05-08T19:35:15.647Z,24.90
2018-05-08T19:37:47.989Z,24.60
2018-05-08T19:40:14.235Z,24.50
2018-05-08T19:42:40.535Z,24.70
2018-05-08T19:45:06.825Z,24.30
2018-05-08T19:47:33.133Z,24.60
2018-05-08T19:49:59.438Z,24.40
2018-05-08T19:52:26.511Z,24.60
2018-05-08T19:54:52.750Z,24.30
2018-05-08T19:57:19.028Z,24.00
2018-05-08T19:59:45.287Z,24.10
2018-05-08T20:02:12.290Z,23.90
2018-05-08T20:04:38.590Z,24.00
2018-05-08T20:07:04.863Z,23.80
2018-05-08T20:09:31.127Z,23.80
2018-05-08T20:11:58.121Z,23.60
2018-05-08T20:14:24.402Z,23.60
2018-05-08T20:16:51.438Z,23.80
2018-05-08T20:19:18.477Z,23.60
2018-05-08T20:21:44.749Z,23.60
2018-05-08T20:24:11.004Z,23.40
2018-05-08T20:26:37.299Z,23.30
2018-05-08T20:29:03.577Z,23.40
2018-05-08T20:31:29.849Z,23.40
2018-05-08T20:33:56.871Z,23.40
2018-05-08T20:36:23.222Z,23.10
2018-05-08T20:38:49.415Z,23.10
2018-05-08T20:41:15.730Z,23.10
2018-05-08T20:43:42.082Z,23.00
2018-05-08T20:46:09.114Z,22.90
2018-05-08T20:48:35.468Z,23.00
2018-05-08T20:51:01.789Z,23.10
2018-05-08T20:53:28.001Z,23.00
2018-05-08T20:55:54.310Z,22.90
2018-05-08T20:58:20.569Z,22.80
2018-05-08T21:00:46.846Z,23.00
2018-05-08T21:03:13.884Z,22.60
2018-05-08T21:05:40.897Z,22.40
2018-05-08T21:08:07.162Z,22.40
2018-05-08T21:10:34.267Z,22.30
2018-05-08T21:13:00.542Z,22.30
2018-05-08T21:15:27.543Z,22.20
2018-05-08T21:17:53.911Z,21.90
2018-05-08T21:20:20.133Z,22.10
2018-05-08T21:22:46.444Z,22.30
2018-05-08T21:25:12.730Z,22.40
2018-05-08T21:27:45.068Z,22.10
2018-05-08T21:33:17.856Z,22.40
2018-05-08T21:35:44.199Z,21.70
2018-05-08T21:38:11.202Z,21.80
2018-05-08T21:40:37.471Z,21.90
2018-05-08T21:43:03.768Z,21.80
2018-05-08T21:45:30.046Z,22.00
2018-05-08T21:47:57.101Z,22.20
2018-05-08T21:50:23.403Z,21.70
2018-05-08T21:52:49.648Z,21.60
2018-05-08T21:55:15.890Z,21.80
2018-05-08T21:57:42.923Z,21.50
2018-05-08T22:00:12.146Z,21.60
2018-05-08T22:02:38.401Z,21.70
2018-05-08T22:05:04.713Z,21.70
2018-05-08T22:07:30.977Z,21.40
2018-05-08T22:09:57.231Z,21.60
2018-05-08T22:12:23.503Z,21.30
2018-05-08T22:14:49.746Z,21.60
2018-05-08T22:17:16.017Z,21.20
2018-05-08T22:19:42.285Z,21.10
2018-05-08T22:22:08.550Z,20.90
2018-05-08T22:24:34.800Z,21.30
2018-05-08T22:27:01.082Z,21.00
2018-05-08T22:29:27.334Z,21.10
2018-05-08T22:31:53.587Z,21.00
2018-05-08T22:34:19.851Z,20.90
2018-05-08T22:36:46.825Z,20.80
2018-05-08T22:39:13.081Z,21.00
2018-05-08T22:41:39.362Z,21.00
2018-05-08T22:44:05.621Z,20.80
2018-05-08T22:46:31.880Z,20.70
2018-05-08T22:48:58.198Z,20.40
2018-05-08T22:51:24.447Z,20.40
2018-05-08T22:53:50.705Z,20.40
2018-05-08T22:56:16.991Z,20.50
2018-05-08T22:58:43.275Z,20.50
2018-05-08T23:01:09.539Z,20.40
2018-05-08T23:03:35.815Z,20.30
2018-05-08T23:06:02.819Z,20.20
2018-05-08T23:08:29.821Z,20.10
2018-05-08T23:10:56.098Z,20.10
2018-05-08T23:13:22.389Z,20.00
2018-05-08T23:15:48.674Z,19.90
2018-05-08T23:18:14.969Z,19.80
2018-05-08T23:20:41.247Z,19.90
2018-05-08T23:23:08.262Z,20.10
2018-05-08T23:25:34.531Z,19.90
2018-05-08T23:28:01.547Z,20.10
2018-05-08T23:30:27.803Z,19.90
2018-05-08T23:32:54.097Z,19.70
2018-05-08T23:35:20.372Z,19.80
2018-05-08T23:37:47.409Z,19.60
2018-05-08T23:40:13.701Z,19.30
2018-05-08T23:42:39.988Z,19.60
2018-05-08T23:45:06.983Z,19.30
2018-05-08T23:47:33.272Z,19.40
2018-05-08T23:49:59.537Z,19.60
2018-05-08T23:52:25.800Z,19.30
2018-05-08T23:54:52.074Z,19.80
2018-05-08T23:57:18.333Z,19.50
2018-05-08T23:59:44.609Z,19.30
